createdAt,value
2023-02-08T00:00:36.002Z,99957.50
2023-02-08T00:03:03.380Z,99959.47
2023-02-08T00:05:29.834Z,99962.34
2023-02-08T00:07:56.226Z,99927.22
2023-02-08T00:10:22.735Z,99970.41
2023-02-08T00:12:49.262Z,99956.56
2023-02-08T00:15:15.752Z,99936.03
2023-02-08T00:17:42.193Z,99951.38
2023-02-08T00:20:09.383Z,99955.75
2023-02-08T00:22:35.828Z,99946.03
2023-02-08T00:25:02.218Z,99940.78
2023-02-08T00:27:30.014Z,99920.13
2023-02-08T00:29:56.476Z,99892.91
2023-02-08T00:32:23.000Z,99922.16
2023-02-08T00:34:49.435Z,99911.97
2023-02-08T00:37:16.275Z,99937.41
2023-02-08T00:39:42.848Z,99922.13
2023-02-08T00:42:12.064Z,99937.53
2023-02-08T00:44:38.517Z,99938.47
2023-02-08T00:47:05.049Z,99934.22
2023-02-08T00:49:31.464Z,99941.16
2023-02-08T00:51:57.888Z,99939.38
2023-02-08T00:54:24.293Z,99947.09
2023-02-08T00:56:52.079Z,99942.28
2023-02-08T00:59:18.484Z,99943.25
2023-02-08T01:01:44.973Z,99947.59
2023-02-08T01:04:11.473Z,99951.16
2023-02-08T01:06:43.496Z,99957.16
2023-02-08T01:09:10.075Z,99960.72
2023-02-08T01:11:36.542Z,99957.28
2023-02-08T01:14:02.983Z,99955.69
2023-02-08T01:16:32.253Z,99956.59
2023-02-08T01:19:01.505Z,99961.72
2023-02-08T01:21:32.921Z,99961.78
2023-02-08T01:24:00.149Z,99959.13
2023-02-08T01:26:26.972Z,99938.44
2023-02-08T01:28:54.937Z,99943.59
2023-02-08T01:31:24.702Z,99942.81
2023-02-08T01:33:51.672Z,99950.53
2023-02-08T01:36:18.638Z,99919.56
2023-02-08T01:38:46.752Z,99918.66
2023-02-08T01:41:23.722Z,99917.44
2023-02-08T01:44:46.604Z,99863.00
2023-02-08T01:47:13.206Z,99911.97
2023-02-08T01:49:40.338Z,99944.41
2023-02-08T01:52:20.512Z,99946.09
2023-02-08T01:54:53.927Z,99943.25
2023-02-08T01:57:21.020Z,99941.28
2023-02-08T01:59:54.857Z,99941.38
2023-02-08T02:02:22.997Z,99959.16
2023-02-08T02:04:51.264Z,99965.19
2023-02-08T02:07:20.278Z,99960.81
2023-02-08T02:10:16.237Z,99951.81
2023-02-08T02:12:43.565Z,99950.88
2023-02-08T02:15:10.423Z,99957.66
2023-02-08T02:17:39.174Z,99968.75
2023-02-08T02:20:10.763Z,99972.13
2023-02-08T02:23:11.311Z,99982.84
2023-02-08T02:25:59.087Z,99993.44
2023-02-08T02:29:10.478Z,99994.75
2023-02-08T02:32:13.903Z,100000.41
2023-02-08T02:34:57.513Z,100010.84
2023-02-08T02:37:49.268Z,100021.97
2023-02-08T02:40:32.334Z,100012.28
2023-02-08T02:43:36.524Z,100027.97
2023-02-08T02:46:12.719Z,100032.38
2023-02-08T02:48:58.977Z,100022.72
2023-02-08T02:51:43.289Z,100045.25
2023-02-08T02:54:17.208Z,100051.31
2023-02-08T02:56:47.606Z,100052.16
2023-02-08T02:59:15.937Z,100055.47
2023-02-08T03:01:44.612Z,100051.78
2023-02-08T03:04:13.728Z,100053.38
2023-02-08T03:06:52.764Z,100047.25
2023-02-08T03:09:42.695Z,100056.78
2023-02-08T03:12:31.320Z,100063.88
2023-02-08T03:15:23.483Z,100073.44
2023-02-08T03:17:56.956Z,100069.16
2023-02-08T03:20:30.146Z,100081.25
2023-02-08T03:23:12.798Z,100088.44
2023-02-08T03:25:51.847Z,100079.22
2023-02-08T03:28:34.049Z,100082.91
2023-02-08T03:31:24.198Z,100087.91
2023-02-08T03:34:18.384Z,100075.78
2023-02-08T03:36:53.405Z,100107.22
2023-02-08T03:39:26.187Z,100096.59
2023-02-08T03:41:57.829Z,100087.44
2023-02-08T03:44:49.614Z,100099.16
2023-02-08T03:47:32.736Z,100084.66
2023-02-08T03:50:06.598Z,100093.94
2023-02-08T03:52:34.865Z,100088.28
2023-02-08T03:55:08.505Z,100058.09
2023-02-08T03:57:41.776Z,100113.53
2023-02-08T04:00:12.437Z,100093.91
2023-02-08T04:02:45.080Z,100116.97
2023-02-08T04:05:12.583Z,100135.97
2023-02-08T04:07:39.056Z,100144.63
2023-02-08T04:10:09.458Z,100103.72
2023-02-08T04:12:36.507Z,100146.53
2023-02-08T04:15:03.216Z,100138.72
2023-02-08T04:17:29.904Z,100137.06
2023-02-08T04:19:56.344Z,100139.66
2023-02-08T04:22:22.778Z,100137.97
2023-02-08T04:24:49.212Z,100134.59
2023-02-08T04:27:15.677Z,100132.09
2023-02-08T04:29:42.060Z,100104.75
2023-02-08T04:32:11.696Z,100128.34
2023-02-08T04:34:38.767Z,100132.88
2023-02-08T04:37:12.085Z,100125.28
2023-02-08T04:39:38.594Z,100131.88
2023-02-08T04:42:05.232Z,100124.91
2023-02-08T04:44:32.903Z,100131.16
2023-02-08T04:47:00.470Z,100138.91
2023-02-08T04:49:26.909Z,100135.34
2023-02-08T04:51:53.367Z,100133.63
2023-02-08T04:54:19.953Z,100136.28
2023-02-08T04:56:46.948Z,100131.19
2023-02-08T04:59:13.334Z,100137.16
2023-02-08T05:01:42.696Z,100137.84
2023-02-08T05:04:09.320Z,100141.38
2023-02-08T05:06:36.207Z,100132.09
2023-02-08T05:09:02.787Z,100141.19
2023-02-08T05:11:29.516Z,100142.06
2023-02-08T05:13:56.093Z,100136.91
2023-02-08T05:16:22.660Z,100119.66
2023-02-08T05:18:49.211Z,100137.41
2023-02-08T05:21:15.705Z,100088.47
2023-02-08T05:23:42.133Z,100136.50
2023-02-08T05:26:11.455Z,100134.97
2023-02-08T05:28:38.245Z,100142.75
2023-02-08T05:31:20.964Z,100134.78
2023-02-08T05:33:48.918Z,100146.69
2023-02-08T05:36:15.688Z,100143.56
2023-02-08T05:38:43.059Z,100156.69
2023-02-08T05:41:09.751Z,100167.72
2023-02-08T05:43:36.308Z,100177.09
2023-02-08T05:46:03.580Z,100172.94
2023-02-08T05:48:31.830Z,100185.97
2023-02-08T05:50:59.353Z,100188.44
2023-02-08T05:53:26.241Z,100192.78
2023-02-08T05:55:53.182Z,100190.84
2023-02-08T05:58:19.733Z,100207.41
2023-02-08T06:00:46.182Z,100210.22
2023-02-08T06:03:12.830Z,100218.22
2023-02-08T06:05:40.740Z,100213.13
2023-02-08T06:08:07.938Z,100225.19
2023-02-08T06:10:35.402Z,100228.75
2023-02-08T06:13:02.179Z,100234.81
2023-02-08T06:15:28.792Z,100225.31
2023-02-08T06:17:55.371Z,100227.97
2023-02-08T06:20:21.930Z,100229.66
2023-02-08T06:22:48.354Z,100226.97
2023-02-08T06:25:14.906Z,100217.69
2023-02-08T06:27:41.357Z,100213.44
2023-02-08T06:30:08.093Z,100227.16
2023-02-08T06:32:34.563Z,100227.16
2023-02-08T06:35:01.253Z,100218.41
2023-02-08T06:37:27.667Z,100215.00
2023-02-08T06:39:54.415Z,100215.78
2023-02-08T06:42:21.079Z,100220.06
2023-02-08T06:44:55.074Z,100202.88
2023-02-08T06:47:23.200Z,100205.41
2023-02-08T06:49:49.727Z,100214.03
2023-02-08T06:52:16.283Z,100223.72
2023-02-08T06:54:43.222Z,100214.16
2023-02-08T06:57:12.719Z,100208.06
2023-02-08T06:59:39.962Z,100206.34
2023-02-08T07:02:06.945Z,100209.88
2023-02-08T07:04:33.428Z,100203.66
2023-02-08T07:06:59.859Z,100208.94
2023-02-08T07:09:26.405Z,100208.13
2023-02-08T07:11:52.833Z,100212.47
2023-02-08T07:14:19.429Z,100207.31
2023-02-08T07:16:48.478Z,100210.81
2023-02-08T07:19:14.978Z,100212.53
2023-02-08T07:21:41.767Z,100213.38
2023-02-08T07:24:08.226Z,100208.03
2023-02-08T07:26:34.644Z,100201.16
2023-02-08T07:29:01.305Z,100213.25
2023-02-08T07:31:27.806Z,100214.88
2023-02-08T07:33:54.208Z,100207.84
2023-02-08T07:36:20.791Z,100205.31
2023-02-08T07:38:47.216Z,100221.69
2023-02-08T07:41:14.465Z,100216.63
2023-02-08T07:43:49.106Z,100235.41
2023-02-08T07:46:20.933Z,100211.34
2023-02-08T07:48:49.955Z,100197.22
2023-02-08T07:51:16.394Z,100209.19
2023-02-08T07:53:42.867Z,100212.41
2023-02-08T07:56:10.469Z,100172.84
2023-02-08T07:58:37.604Z,100216.63
2023-02-08T08:01:19.727Z,100215.00
2023-02-08T08:03:48.442Z,100193.69
2023-02-08T08:06:14.988Z,100215.47
2023-02-08T08:08:41.396Z,100177.94
2023-02-08T08:11:07.842Z,100167.41
2023-02-08T08:13:34.250Z,100184.09
2023-02-08T08:16:00.694Z,100173.19
2023-02-08T08:18:27.481Z,100185.81
2023-02-08T08:20:53.945Z,100166.31
2023-02-08T08:23:20.355Z,100153.91
2023-02-08T08:25:46.835Z,100164.59
2023-02-08T08:28:13.441Z,100156.53
2023-02-08T08:30:44.193Z,100152.97
2023-02-08T08:33:13.941Z,100155.03
2023-02-08T08:35:40.892Z,100166.03
2023-02-08T08:38:07.357Z,100121.00
2023-02-08T08:40:33.887Z,100166.97
2023-02-08T08:43:00.320Z,100184.09
2023-02-08T08:45:26.855Z,100193.63
2023-02-08T08:47:53.532Z,100204.03
2023-02-08T08:50:20.084Z,100215.03
2023-02-08T08:52:46.726Z,100206.75
2023-02-08T08:55:13.431Z,100221.34
2023-02-08T08:57:39.890Z,100227.06
2023-02-08T09:00:06.759Z,100222.28
2023-02-08T09:02:33.197Z,100231.72
2023-02-08T09:05:00.420Z,100212.16
2023-02-08T09:07:26.960Z,100213.75
2023-02-08T09:09:53.382Z,100222.16
2023-02-08T09:12:19.797Z,100230.41
2023-02-08T09:14:46.240Z,100231.19
2023-02-08T09:17:12.696Z,100217.50
2023-02-08T09:19:39.321Z,100235.09
2023-02-08T09:22:07.418Z,100221.84
2023-02-08T09:24:34.885Z,100228.38
2023-02-08T09:27:01.630Z,100241.59
2023-02-08T09:29:30.337Z,100265.47
2023-02-08T09:31:57.302Z,100237.25
2023-02-08T09:34:24.144Z,100245.84
2023-02-08T09:36:50.895Z,100245.16
2023-02-08T09:39:23.259Z,100279.75
2023-02-08T09:42:02.528Z,100251.53
2023-02-08T09:45:02.314Z,100268.88
2023-02-08T09:47:33.179Z,100272.66
2023-02-08T09:50:21.061Z,100262.09
2023-02-08T09:53:00.622Z,100273.41
2023-02-08T09:55:37.456Z,100258.59
2023-02-08T09:58:19.225Z,100282.03
2023-02-08T10:00:48.162Z,100286.03
2023-02-08T10:03:27.507Z,100273.53
2023-02-08T10:05:54.287Z,100269.41
2023-02-08T10:08:20.936Z,100304.31
2023-02-08T10:10:58.410Z,100289.06
2023-02-08T10:13:42.186Z,100291.72
2023-02-08T10:16:50.847Z,100298.41
2023-02-08T10:19:24.466Z,100297.81
2023-02-08T10:22:00.265Z,100294.53
2023-02-08T10:24:45.261Z,100303.63
2023-02-08T10:27:30.475Z,100284.31
2023-02-08T10:30:22.008Z,100305.16
2023-02-08T10:33:03.236Z,100289.44
2023-02-08T10:35:37.645Z,100299.81
2023-02-08T10:38:25.150Z,100318.84
2023-02-08T10:41:17.411Z,100317.19
2023-02-08T10:43:52.170Z,100294.78
2023-02-08T10:46:32.681Z,100322.41
2023-02-08T10:49:16.908Z,100310.09
2023-02-08T10:51:46.190Z,100293.31
2023-02-08T10:54:14.330Z,100311.81
2023-02-08T10:56:49.720Z,100295.63
2023-02-08T10:59:31.749Z,100279.41
2023-02-08T11:01:59.184Z,100312.41
2023-02-08T11:04:26.093Z,100306.16
2023-02-08T11:06:54.627Z,100306.13
2023-02-08T11:09:30.254Z,100315.38
2023-02-08T11:12:02.441Z,100294.91
2023-02-08T11:14:46.785Z,100306.53
2023-02-08T11:17:34.082Z,100302.19
2023-02-08T11:20:01.400Z,100310.69
2023-02-08T11:22:34.475Z,100301.88
2023-02-08T11:25:06.860Z,100304.44
2023-02-08T11:27:37.457Z,100307.13
2023-02-08T11:30:24.559Z,100307.47
2023-02-08T11:33:16.076Z,100282.34
2023-02-08T11:36:05.158Z,100276.47
2023-02-08T11:38:35.082Z,100265.16
2023-02-08T11:41:04.646Z,100287.41
2023-02-08T11:43:34.818Z,100304.88
2023-02-08T11:46:04.027Z,100312.88
2023-02-08T11:48:45.507Z,100277.13
2023-02-08T11:51:27.345Z,100269.53
2023-02-08T11:53:55.200Z,100273.41
2023-02-08T11:56:24.959Z,100302.50
2023-02-08T11:59:23.580Z,100282.84
2023-02-08T12:01:50.144Z,100287.25
2023-02-08T12:04:18.047Z,100274.44
2023-02-08T12:06:56.845Z,100283.41
2023-02-08T12:10:16.852Z,100291.00
2023-02-08T12:13:02.429Z,100373.50
2023-02-08T12:15:57.381Z,100373.53
2023-02-08T12:18:45.072Z,100343.78
2023-02-08T12:21:19.324Z,100353.97
2023-02-08T12:24:21.504Z,100430.06
2023-02-08T12:27:06.748Z,100818.59
2023-02-08T12:30:09.396Z,100925.28
2023-02-08T12:32:45.601Z,100930.13
2023-02-08T12:35:57.595Z,100875.06
2023-02-08T12:39:22.785Z,100897.34
2023-02-08T12:42:06.313Z,100951.06
2023-02-08T12:44:43.713Z,100978.69
2023-02-08T12:47:16.307Z,101018.97
2023-02-08T12:50:09.193Z,101039.63
2023-02-08T12:52:44.192Z,101063.22
2023-02-08T12:55:29.098Z,101072.38
2023-02-08T12:58:28.164Z,101055.13
2023-02-08T13:00:59.020Z,101068.13
2023-02-08T13:03:43.837Z,101085.41
2023-02-08T13:06:18.153Z,101039.78
2023-02-08T13:09:06.391Z,101027.34
2023-02-08T13:11:42.057Z,101038.00
2023-02-08T13:14:16.366Z,101054.22
2023-02-08T13:16:45.647Z,101043.66
2023-02-08T13:19:31.713Z,101049.03
2023-02-08T13:21:59.732Z,100985.75
2023-02-08T13:24:33.472Z,100973.47
2023-02-08T13:26:59.994Z,100996.53
2023-02-08T13:29:29.399Z,100992.25
2023-02-08T13:32:18.631Z,100954.69
2023-02-08T13:34:53.563Z,100992.91
2023-02-08T13:37:28.908Z,100979.81
2023-02-08T13:40:05.890Z,100992.03
2023-02-08T13:42:42.798Z,100950.44
2023-02-08T13:45:22.362Z,100982.13
2023-02-08T13:47:59.774Z,100944.78
2023-02-08T13:50:35.064Z,100965.75
2023-02-08T13:53:02.456Z,100947.28
2023-02-08T13:55:28.890Z,100895.09
2023-02-08T13:57:57.561Z,100902.31
2023-02-08T14:00:28.584Z,100752.59
2023-02-08T14:03:07.335Z,100664.25
2023-02-08T14:05:48.577Z,100530.06
2023-02-08T14:08:31.211Z,100475.44
2023-02-08T14:11:04.912Z,100377.00
2023-02-08T14:13:36.031Z,100306.56
2023-02-08T14:16:40.044Z,100200.31
2023-02-08T14:19:22.836Z,100157.03
2023-02-08T14:21:59.155Z,100167.06
2023-02-08T14:24:34.294Z,100156.59
2023-02-08T14:27:20.440Z,100155.09
2023-02-08T14:30:05.136Z,100164.97
2023-02-08T14:32:34.601Z,100158.66
2023-02-08T14:35:04.274Z,100142.31
2023-02-08T14:37:33.434Z,100158.72
2023-02-08T14:40:35.072Z,100145.91
2023-02-08T14:43:19.517Z,100152.31
2023-02-08T14:45:49.217Z,100150.59
2023-02-08T14:48:21.262Z,100141.13
2023-02-08T14:50:56.517Z,100152.41
2023-02-08T14:53:34.434Z,100148.75
2023-02-08T14:56:17.304Z,100161.25
2023-02-08T14:58:56.056Z,100159.75
2023-02-08T15:01:47.038Z,100146.63
2023-02-08T15:04:18.235Z,100147.81
2023-02-08T15:07:00.178Z,100166.66
2023-02-08T15:09:34.891Z,100173.13
2023-02-08T15:12:24.106Z,100177.81
2023-02-08T15:14:54.045Z,100180.53
2023-02-08T15:17:29.400Z,100183.31
2023-02-08T15:19:56.316Z,100176.03
2023-02-08T15:22:29.355Z,100172.88
2023-02-08T15:24:59.311Z,100157.78
2023-02-08T15:27:29.725Z,100171.13
2023-02-08T15:29:56.585Z,100169.38
2023-02-08T15:32:25.396Z,100194.16
2023-02-08T15:35:00.417Z,100187.41
2023-02-08T15:37:32.207Z,100200.59
2023-02-08T15:40:00.100Z,100211.44
2023-02-08T15:42:29.977Z,100228.78
2023-02-08T15:44:56.946Z,100237.31
2023-02-08T15:47:35.825Z,100238.38
2023-02-08T15:50:05.432Z,100237.09
2023-02-08T15:52:35.196Z,100234.56
2023-02-08T15:55:02.408Z,100222.84
2023-02-08T15:57:46.235Z,100165.47
2023-02-08T16:00:37.646Z,100210.88
2023-02-08T16:03:23.901Z,100206.72
2023-02-08T16:05:58.881Z,100211.06
2023-02-08T16:08:29.723Z,100209.47
2023-02-08T16:11:02.830Z,100206.34
2023-02-08T16:13:35.656Z,100207.38
2023-02-08T16:16:16.317Z,100213.16
2023-02-08T16:18:46.287Z,100212.59
2023-02-08T16:21:29.504Z,100212.78
2023-02-08T16:23:58.908Z,100208.50
2023-02-08T16:26:32.397Z,100216.31
2023-02-08T16:29:01.910Z,100213.91
2023-02-08T16:31:31.354Z,100217.34
2023-02-08T16:34:14.319Z,100222.34
2023-02-08T16:36:43.576Z,100225.72
2023-02-08T16:39:16.348Z,100228.56
2023-02-08T16:42:15.100Z,100216.66
2023-02-08T16:44:58.912Z,100220.06
2023-02-08T16:47:28.496Z,100225.44
2023-02-08T16:49:55.048Z,100218.41
2023-02-08T16:52:22.043Z,100218.63
2023-02-08T16:54:49.111Z,100206.50
2023-02-08T16:57:15.570Z,100211.88
2023-02-08T16:59:42.228Z,100201.34
2023-02-08T17:02:14.487Z,100207.59
2023-02-08T17:04:40.966Z,100158.69
2023-02-08T17:07:18.612Z,100192.78
2023-02-08T17:09:45.449Z,100194.56
2023-02-08T17:12:21.795Z,100201.44
2023-02-08T17:14:49.088Z,100196.34
2023-02-08T17:17:15.584Z,100202.47
2023-02-08T17:19:47.539Z,100196.19
2023-02-08T17:22:14.454Z,100200.56
2023-02-08T17:24:41.448Z,100205.06
2023-02-08T17:27:13.074Z,100208.53
2023-02-08T17:29:40.261Z,100200.81
2023-02-08T17:32:06.722Z,100207.44
2023-02-08T17:34:33.412Z,100200.00
2023-02-08T17:37:00.171Z,100189.91
2023-02-08T17:39:26.832Z,100186.47
2023-02-08T17:41:53.671Z,100187.25
2023-02-08T17:44:20.666Z,100186.38
2023-02-08T17:46:47.384Z,100169.34
2023-02-08T17:49:13.873Z,100184.81
2023-02-08T17:51:40.774Z,100181.56
2023-02-08T17:54:09.722Z,100181.34
2023-02-08T17:56:36.850Z,100179.69
2023-02-08T17:59:05.417Z,100177.00
2023-02-08T18:01:32.629Z,100179.06
2023-02-08T18:04:00.144Z,100180.84
2023-02-08T18:06:27.145Z,100180.00
2023-02-08T18:08:55.082Z,100185.13
2023-02-08T18:11:23.707Z,100176.56
2023-02-08T18:13:53.297Z,100179.19
2023-02-08T18:16:25.608Z,100169.16
2023-02-08T18:18:56.762Z,100166.78
2023-02-08T18:21:25.798Z,100149.97
2023-02-08T18:23:52.699Z,100163.81
2023-02-08T18:26:22.169Z,100169.47
2023-02-08T18:28:49.283Z,100155.50
2023-02-08T18:31:20.488Z,100152.03
2023-02-08T18:33:48.672Z,100150.41
2023-02-08T18:36:21.811Z,100147.50
2023-02-08T18:38:51.813Z,100135.06
2023-02-08T18:41:22.873Z,100140.34
2023-02-08T18:43:49.716Z,100121.66
2023-02-08T18:46:18.407Z,100130.19
2023-02-08T18:48:46.238Z,100126.91
2023-02-08T18:51:16.373Z,100123.66
2023-02-08T18:53:43.291Z,100118.53
2023-02-08T18:56:12.206Z,100119.41
2023-02-08T18:58:38.708Z,100116.38
2023-02-08T19:01:16.529Z,100105.84
2023-02-08T19:03:43.785Z,100101.38
2023-02-08T19:06:13.413Z,100099.53
2023-02-08T19:08:41.361Z,100097.97
2023-02-08T19:11:42.128Z,100083.22
2023-02-08T19:14:12.548Z,100087.69
2023-02-08T19:16:39.578Z,100069.31
2023-02-08T19:19:07.050Z,100064.25
2023-02-08T19:21:33.993Z,100066.84
2023-02-08T19:24:02.084Z,100063.31
2023-02-08T19:26:32.652Z,100053.81
2023-02-08T19:29:03.274Z,100045.50
2023-02-08T19:31:30.808Z,100045.31
2023-02-08T19:33:59.203Z,100048.75
2023-02-08T19:36:29.185Z,100051.56
2023-02-08T19:38:56.474Z,100047.34
2023-02-08T19:41:26.363Z,100036.78
2023-02-08T19:43:53.212Z,100042.41
2023-02-08T19:46:22.435Z,100030.34
2023-02-08T19:48:51.137Z,100024.72
2023-02-08T19:51:18.801Z,100026.31
2023-02-08T19:53:45.632Z,100027.47
2023-02-08T19:56:15.203Z,100005.16
2023-02-08T19:58:42.130Z,100022.53
2023-02-08T20:01:19.051Z,100019.34
2023-02-08T20:03:46.976Z,99977.78
2023-02-08T20:06:22.833Z,100007.56
2023-02-08T20:08:49.595Z,99993.22
2023-02-08T20:11:20.550Z,99998.94
2023-02-08T20:13:47.876Z,99944.00
2023-02-08T20:16:14.499Z,99986.50
2023-02-08T20:18:41.071Z,99978.72
2023-02-08T20:21:08.125Z,99966.00
2023-02-08T20:23:35.208Z,99960.03
2023-02-08T20:26:07.390Z,99949.06
2023-02-08T20:28:35.122Z,99931.06
2023-02-08T20:31:06.026Z,99930.91
2023-02-08T20:33:33.963Z,99925.94
2023-02-08T20:36:10.956Z,99866.06
2023-02-08T20:38:38.138Z,99901.88
2023-02-08T20:41:06.442Z,99890.66
2023-02-08T20:43:33.629Z,99884.41
2023-02-08T20:46:00.968Z,99877.84
2023-02-08T20:48:27.538Z,99870.19
2023-02-08T20:50:53.996Z,99864.06
2023-02-08T20:53:20.538Z,99766.31
2023-02-08T20:55:47.154Z,99847.19
2023-02-08T20:58:13.620Z,99830.25
2023-02-08T21:00:42.379Z,99791.31
2023-02-08T21:03:10.049Z,99736.69
2023-02-08T21:05:36.634Z,99808.09
2023-02-08T21:08:03.126Z,99803.72
2023-02-08T21:10:29.696Z,99784.03
2023-02-08T21:12:56.334Z,99766.72
2023-02-08T21:15:22.879Z,99767.47
2023-02-08T21:17:49.521Z,99753.19
2023-02-08T21:20:16.129Z,99703.88
2023-02-08T21:22:42.756Z,99732.69
2023-02-08T21:25:09.641Z,99683.38
2023-02-08T21:27:36.319Z,99675.63
2023-02-08T21:30:03.096Z,99664.78
2023-02-08T21:32:29.893Z,99674.38
2023-02-08T21:34:56.372Z,99618.31
2023-02-08T21:37:23.111Z,99647.69
2023-02-08T21:39:49.569Z,99629.31
2023-02-08T21:42:16.485Z,99629.97
2023-02-08T21:44:42.942Z,99611.59
2023-02-08T21:47:09.405Z,99617.75
2023-02-08T21:49:54.544Z,99608.13
2023-02-08T21:52:39.755Z,99610.91
2023-02-08T21:55:06.417Z,99568.13
2023-02-08T21:57:38.327Z,99609.03
2023-02-08T22:00:08.364Z,99559.56
2023-02-08T22:02:34.933Z,99617.19
2023-02-08T22:05:22.375Z,99614.84
2023-02-08T22:07:52.304Z,99602.06
2023-02-08T22:10:22.045Z,99568.00
2023-02-08T22:12:48.879Z,99587.72
2023-02-08T22:15:17.993Z,99577.31
2023-02-08T22:17:44.628Z,99564.66
2023-02-08T22:20:12.677Z,99545.91
2023-02-08T22:22:39.445Z,99564.72
2023-02-08T22:25:06.826Z,99543.25
2023-02-08T22:27:34.334Z,99541.41
2023-02-08T22:30:00.843Z,99536.41
2023-02-08T22:32:27.357Z,99531.63
2023-02-08T22:34:53.809Z,99537.03
2023-02-08T22:37:20.739Z,99528.31
2023-02-08T22:39:47.213Z,99526.66
2023-02-08T22:42:14.667Z,99499.25
2023-02-08T22:44:43.302Z,99504.41
2023-02-08T22:47:11.696Z,99500.16
2023-02-08T22:49:38.843Z,99500.16
2023-02-08T22:52:08.188Z,99491.63
2023-02-08T22:54:34.746Z,99483.69
2023-02-08T22:57:01.209Z,99485.59
2023-02-08T22:59:27.723Z,99475.34
2023-02-08T23:01:54.241Z,99463.25
2023-02-08T23:04:21.836Z,99465.06
2023-02-08T23:06:48.329Z,99466.72
2023-02-08T23:09:14.972Z,99445.91
2023-02-08T23:11:41.946Z,99442.75
2023-02-08T23:14:08.956Z,99439.13
2023-02-08T23:16:36.188Z,99399.78
2023-02-08T23:19:03.739Z,99438.91
2023-02-08T23:21:30.229Z,99336.38
2023-02-08T23:23:57.316Z,99407.66
2023-02-08T23:26:24.055Z,99421.31
2023-02-08T23:28:52.580Z,99417.72
2023-02-08T23:31:20.012Z,99420.16
2023-02-08T23:33:46.810Z,99395.13
2023-02-08T23:36:16.881Z,99423.94
2023-02-08T23:38:43.890Z,99414.06
2023-02-08T23:41:17.182Z,99414.25
2023-02-08T23:43:43.818Z,99413.16
2023-02-08T23:46:15.985Z,99414.00
2023-02-08T23:48:43.245Z,99398.03
2023-02-08T23:51:10.792Z,99402.09
2023-02-08T23:53:37.795Z,99406.28
2023-02-08T23:56:24.717Z,99411.50
2023-02-08T23:58:54.191Z,99399.09
